sensor_id;sensor_type;location;lat;lon;timestamp;P1;durP1;ratioP1;P2;durP2;ratioP2
51985;SDS011;38002;53.296;6.600;2023-02-10T00:00:50;18.35;;;3.20;;
51985;SDS011;38002;53.296;6.600;2023-02-10T00:05:50;13.07;;;3.78;;
51985;SDS011;38002;53.296;6.600;2023-02-10T00:10:51;13.27;;;3.28;;
51985;SDS011;38002;53.296;6.600;2023-02-10T00:15:51;16.88;;;3.53;;
51985;SDS011;38002;53.296;6.600;2023-02-10T00:20:52;6.20;;;2.47;;
51985;SDS011;38002;53.296;6.600;2023-02-10T00:25:53;13.00;;;3.10;;
51985;SDS011;38002;53.296;6.600;2023-02-10T00:30:54;15.65;;;3.17;;
51985;SDS011;38002;53.296;6.600;2023-02-10T00:35:54;9.82;;;3.33;;
51985;SDS011;38002;53.296;6.600;2023-02-10T00:40:55;16.42;;;3.20;;
51985;SDS011;38002;53.296;6.600;2023-02-10T00:45:55;8.98;;;4.18;;
51985;SDS011;38002;53.296;6.600;2023-02-10T00:50:55;3.08;;;2.25;;
51985;SDS011;38002;53.296;6.600;2023-02-10T00:55:56;19.60;;;3.45;;
51985;SDS011;38002;53.296;6.600;2023-02-10T01:00:56;13.35;;;2.97;;
51985;SDS011;38002;53.296;6.600;2023-02-10T01:05:57;15.65;;;3.58;;
51985;SDS011;38002;53.296;6.600;2023-02-10T01:10:58;11.30;;;3.90;;
51985;SDS011;38002;53.296;6.600;2023-02-10T01:16:08;12.63;;;3.95;;
51985;SDS011;38002;53.296;6.600;2023-02-10T01:21:13;20.42;;;3.45;;
51985;SDS011;38002;53.296;6.600;2023-02-10T01:26:15;17.63;;;3.85;;
51985;SDS011;38002;53.296;6.600;2023-02-10T01:31:17;16.65;;;3.92;;
51985;SDS011;38002;53.296;6.600;2023-02-10T01:36:20;14.90;;;4.38;;
51985;SDS011;38002;53.296;6.600;2023-02-10T01:41:23;18.38;;;4.50;;
51985;SDS011;38002;53.296;6.600;2023-02-10T01:46:24;15.93;;;3.90;;
51985;SDS011;38002;53.296;6.600;2023-02-10T01:51:28;34.63;;;5.28;;
51985;SDS011;38002;53.296;6.600;2023-02-10T01:56:34;18.95;;;4.75;;
51985;SDS011;38002;53.296;6.600;2023-02-10T02:01:34;15.25;;;4.03;;
51985;SDS011;38002;53.296;6.600;2023-02-10T02:06:35;8.90;;;3.83;;
51985;SDS011;38002;53.296;6.600;2023-02-10T02:33:02;13.63;;;3.72;;
51985;SDS011;38002;53.296;6.600;2023-02-10T02:38:09;14.70;;;4.53;;
51985;SDS011;38002;53.296;6.600;2023-02-10T02:43:10;8.32;;;3.92;;
51985;SDS011;38002;53.296;6.600;2023-02-10T02:48:24;13.15;;;3.53;;
51985;SDS011;38002;53.296;6.600;2023-02-10T02:54:10;15.05;;;4.50;;
51985;SDS011;38002;53.296;6.600;2023-02-10T03:04:31;11.80;;;3.67;;
51985;SDS011;38002;53.296;6.600;2023-02-10T03:09:33;12.10;;;4.47;;
51985;SDS011;38002;53.296;6.600;2023-02-10T03:14:34;11.20;;;3.77;;
51985;SDS011;38002;53.296;6.600;2023-02-10T03:19:35;9.90;;;3.63;;
51985;SDS011;38002;53.296;6.600;2023-02-10T03:24:35;17.50;;;4.55;;
51985;SDS011;38002;53.296;6.600;2023-02-10T03:29:37;10.55;;;3.92;;
51985;SDS011;38002;53.296;6.600;2023-02-10T03:34:38;18.20;;;5.10;;
51985;SDS011;38002;53.296;6.600;2023-02-10T03:39:38;23.00;;;5.35;;
51985;SDS011;38002;53.296;6.600;2023-02-10T03:44:39;9.50;;;4.55;;
51985;SDS011;38002;53.296;6.600;2023-02-10T03:49:39;13.02;;;4.80;;
51985;SDS011;38002;53.296;6.600;2023-02-10T03:54:40;16.45;;;4.93;;
51985;SDS011;38002;53.296;6.600;2023-02-10T03:59:40;23.45;;;5.70;;
51985;SDS011;38002;53.296;6.600;2023-02-10T04:04:40;18.10;;;4.90;;
51985;SDS011;38002;53.296;6.600;2023-02-10T04:09:41;16.60;;;5.35;;
51985;SDS011;38002;53.296;6.600;2023-02-10T04:14:41;16.38;;;4.35;;
51985;SDS011;38002;53.296;6.600;2023-02-10T04:19:42;21.42;;;5.18;;
51985;SDS011;38002;53.296;6.600;2023-02-10T04:24:42;11.93;;;5.00;;
51985;SDS011;38002;53.296;6.600;2023-02-10T04:29:43;18.10;;;4.88;;
51985;SDS011;38002;53.296;6.600;2023-02-10T04:34:43;16.33;;;5.50;;
51985;SDS011;38002;53.296;6.600;2023-02-10T04:39:44;15.98;;;4.15;;
51985;SDS011;38002;53.296;6.600;2023-02-10T04:44:44;14.57;;;4.82;;
51985;SDS011;38002;53.296;6.600;2023-02-10T04:49:44;13.20;;;4.72;;
51985;SDS011;38002;53.296;6.600;2023-02-10T04:54:45;14.75;;;4.72;;
51985;SDS011;38002;53.296;6.600;2023-02-10T04:59:46;20.55;;;5.18;;
51985;SDS011;38002;53.296;6.600;2023-02-10T05:04:46;19.70;;;5.72;;
51985;SDS011;38002;53.296;6.600;2023-02-10T05:09:47;8.90;;;3.78;;
51985;SDS011;38002;53.296;6.600;2023-02-10T05:14:47;21.88;;;5.20;;
51985;SDS011;38002;53.296;6.600;2023-02-10T05:19:47;14.25;;;4.57;;
51985;SDS011;38002;53.296;6.600;2023-02-10T05:24:48;21.92;;;5.13;;
51985;SDS011;38002;53.296;6.600;2023-02-10T05:29:51;15.57;;;4.05;;
51985;SDS011;38002;53.296;6.600;2023-02-10T05:34:52;27.15;;;4.97;;
51985;SDS011;38002;53.296;6.600;2023-02-10T05:39:53;10.40;;;4.55;;
51985;SDS011;38002;53.296;6.600;2023-02-10T05:44:53;16.25;;;4.93;;
51985;SDS011;38002;53.296;6.600;2023-02-10T05:49:53;9.35;;;4.60;;
51985;SDS011;38002;53.296;6.600;2023-02-10T05:54:54;22.73;;;5.60;;
51985;SDS011;38002;53.296;6.600;2023-02-10T05:59:54;16.77;;;5.90;;
51985;SDS011;38002;53.296;6.600;2023-02-10T06:04:55;18.70;;;5.07;;
51985;SDS011;38002;53.296;6.600;2023-02-10T06:09:55;16.50;;;6.10;;
51985;SDS011;38002;53.296;6.600;2023-02-10T06:14:56;14.07;;;6.25;;
51985;SDS011;38002;53.296;6.600;2023-02-10T06:19:57;15.43;;;5.78;;
51985;SDS011;38002;53.296;6.600;2023-02-10T06:24:57;17.00;;;5.28;;
51985;SDS011;38002;53.296;6.600;2023-02-10T06:29:57;23.83;;;6.28;;
51985;SDS011;38002;53.296;6.600;2023-02-10T06:34:58;17.38;;;5.97;;
51985;SDS011;38002;53.296;6.600;2023-02-10T06:39:58;19.02;;;6.90;;
51985;SDS011;38002;53.296;6.600;2023-02-10T06:44:59;19.10;;;6.65;;
51985;SDS011;38002;53.296;6.600;2023-02-10T06:49:59;17.75;;;6.05;;
51985;SDS011;38002;53.296;6.600;2023-02-10T06:55:00;22.42;;;7.50;;
51985;SDS011;38002;53.296;6.600;2023-02-10T07:00:02;14.98;;;6.75;;
51985;SDS011;38002;53.296;6.600;2023-02-10T07:05:04;23.13;;;6.05;;
51985;SDS011;38002;53.296;6.600;2023-02-10T07:10:07;24.42;;;6.20;;
51985;SDS011;38002;53.296;6.600;2023-02-10T07:15:08;17.10;;;5.88;;
51985;SDS011;38002;53.296;6.600;2023-02-10T07:20:09;19.75;;;6.25;;
51985;SDS011;38002;53.296;6.600;2023-02-10T07:25:10;20.90;;;7.27;;
51985;SDS011;38002;53.296;6.600;2023-02-10T07:30:11;17.85;;;7.50;;
51985;SDS011;38002;53.296;6.600;2023-02-10T07:35:12;24.85;;;8.15;;
51985;SDS011;38002;53.296;6.600;2023-02-10T07:40:12;15.13;;;7.72;;
51985;SDS011;38002;53.296;6.600;2023-02-10T07:45:13;25.38;;;6.80;;
51985;SDS011;38002;53.296;6.600;2023-02-10T07:50:13;12.85;;;5.80;;
51985;SDS011;38002;53.296;6.600;2023-02-10T07:55:14;30.98;;;7.07;;
51985;SDS011;38002;53.296;6.600;2023-02-10T08:00:14;23.77;;;7.78;;
51985;SDS011;38002;53.296;6.600;2023-02-10T08:05:15;21.63;;;7.88;;
51985;SDS011;38002;53.296;6.600;2023-02-10T08:10:16;20.45;;;7.13;;
51985;SDS011;38002;53.296;6.600;2023-02-10T08:15:16;25.08;;;7.72;;
51985;SDS011;38002;53.296;6.600;2023-02-10T08:20:17;25.20;;;8.32;;
51985;SDS011;38002;53.296;6.600;2023-02-10T08:25:17;28.48;;;7.75;;
51985;SDS011;38002;53.296;6.600;2023-02-10T08:30:18;22.10;;;7.80;;
51985;SDS011;38002;53.296;6.600;2023-02-10T08:35:21;14.70;;;6.80;;
51985;SDS011;38002;53.296;6.600;2023-02-10T08:40:22;15.27;;;6.85;;
51985;SDS011;38002;53.296;6.600;2023-02-10T08:45:22;22.13;;;7.47;;
51985;SDS011;38002;53.296;6.600;2023-02-10T08:50:23;21.08;;;7.40;;
51985;SDS011;38002;53.296;6.600;2023-02-10T08:55:23;20.98;;;7.32;;
51985;SDS011;38002;53.296;6.600;2023-02-10T09:00:24;24.92;;;7.53;;
51985;SDS011;38002;53.296;6.600;2023-02-10T09:05:24;15.48;;;7.60;;
51985;SDS011;38002;53.296;6.600;2023-02-10T09:10:25;14.32;;;6.32;;
51985;SDS011;38002;53.296;6.600;2023-02-10T09:15:25;25.33;;;8.38;;
51985;SDS011;38002;53.296;6.600;2023-02-10T09:20:26;24.95;;;8.32;;
51985;SDS011;38002;53.296;6.600;2023-02-10T09:25:26;21.08;;;7.57;;
51985;SDS011;38002;53.296;6.600;2023-02-10T09:30:27;19.42;;;7.28;;
51985;SDS011;38002;53.296;6.600;2023-02-10T09:35:27;19.48;;;7.70;;
51985;SDS011;38002;53.296;6.600;2023-02-10T09:40:30;28.42;;;10.13;;
51985;SDS011;38002;53.296;6.600;2023-02-10T09:45:34;19.73;;;8.32;;
51985;SDS011;38002;53.296;6.600;2023-02-10T09:50:44;21.40;;;8.35;;
51985;SDS011;38002;53.296;6.600;2023-02-10T09:55:52;25.15;;;9.23;;
51985;SDS011;38002;53.296;6.600;2023-02-10T10:00:58;16.75;;;8.07;;
51985;SDS011;38002;53.296;6.600;2023-02-10T10:06:09;19.50;;;7.88;;
51985;SDS011;38002;53.296;6.600;2023-02-10T10:16:42;26.23;;;8.95;;
51985;SDS011;38002;53.296;6.600;2023-02-10T10:27:12;17.08;;;7.78;;
51985;SDS011;38002;53.296;6.600;2023-02-10T10:32:18;27.13;;;8.95;;
51985;SDS011;38002;53.296;6.600;2023-02-10T10:37:24;16.58;;;7.72;;
51985;SDS011;38002;53.296;6.600;2023-02-10T10:42:27;24.65;;;8.43;;
51985;SDS011;38002;53.296;6.600;2023-02-10T10:47:52;19.92;;;8.07;;
51985;SDS011;38002;53.296;6.600;2023-02-10T10:52:57;21.20;;;7.63;;
51985;SDS011;38002;53.296;6.600;2023-02-10T10:57:58;16.58;;;6.55;;
51985;SDS011;38002;53.296;6.600;2023-02-10T11:03:02;15.38;;;6.80;;
51985;SDS011;38002;53.296;6.600;2023-02-10T11:08:05;13.30;;;5.60;;
51985;SDS011;38002;53.296;6.600;2023-02-10T11:13:11;19.38;;;7.63;;
51985;SDS011;38002;53.296;6.600;2023-02-10T11:18:20;15.15;;;6.55;;
51985;SDS011;38002;53.296;6.600;2023-02-10T11:23:22;27.77;;;8.80;;
51985;SDS011;38002;53.296;6.600;2023-02-10T11:28:24;16.30;;;7.13;;
51985;SDS011;38002;53.296;6.600;2023-02-10T11:33:28;19.05;;;5.25;;
51985;SDS011;38002;53.296;6.600;2023-02-10T11:38:32;23.52;;;8.13;;
51985;SDS011;38002;53.296;6.600;2023-02-10T11:43:45;19.25;;;7.18;;
51985;SDS011;38002;53.296;6.600;2023-02-10T11:48:53;22.75;;;8.07;;
51985;SDS011;38002;53.296;6.600;2023-02-10T11:53:55;16.20;;;6.43;;
51985;SDS011;38002;53.296;6.600;2023-02-10T12:26:02;10.75;;;3.55;;
51985;SDS011;38002;53.296;6.600;2023-02-10T12:36:11;16.95;;;3.47;;
51985;SDS011;38002;53.296;6.600;2023-02-10T12:52:36;11.00;;;3.33;;
51985;SDS011;38002;53.296;6.600;2023-02-10T12:57:55;8.77;;;3.15;;
51985;SDS011;38002;53.296;6.600;2023-02-10T13:08:10;19.40;;;4.15;;
51985;SDS011;38002;53.296;6.600;2023-02-10T13:13:18;18.48;;;2.80;;
51985;SDS011;38002;53.296;6.600;2023-02-10T13:18:27;10.30;;;3.13;;
51985;SDS011;38002;53.296;6.600;2023-02-10T13:23:38;18.13;;;3.13;;
51985;SDS011;38002;53.296;6.600;2023-02-10T13:29:13;20.65;;;3.55;;
51985;SDS011;38002;53.296;6.600;2023-02-10T13:34:20;12.77;;;2.50;;
51985;SDS011;38002;53.296;6.600;2023-02-10T13:39:26;10.50;;;3.45;;
51985;SDS011;38002;53.296;6.600;2023-02-10T13:44:31;7.75;;;2.72;;
51985;SDS011;38002;53.296;6.600;2023-02-10T13:49:33;14.40;;;2.78;;
51985;SDS011;38002;53.296;6.600;2023-02-10T13:54:36;10.35;;;3.20;;
51985;SDS011;38002;53.296;6.600;2023-02-10T13:59:38;9.02;;;3.10;;
51985;SDS011;38002;53.296;6.600;2023-02-10T14:04:44;11.60;;;3.42;;
51985;SDS011;38002;53.296;6.600;2023-02-10T14:09:47;11.02;;;3.13;;
51985;SDS011;38002;53.296;6.600;2023-02-10T14:14:47;11.57;;;3.40;;
51985;SDS011;38002;53.296;6.600;2023-02-10T14:19:48;13.95;;;2.78;;
51985;SDS011;38002;53.296;6.600;2023-02-10T14:24:51;13.13;;;3.70;;
51985;SDS011;38002;53.296;6.600;2023-02-10T14:29:56;11.02;;;2.80;;
51985;SDS011;38002;53.296;6.600;2023-02-10T14:35:01;7.68;;;3.58;;
51985;SDS011;38002;53.296;6.600;2023-02-10T14:40:15;10.55;;;2.60;;
51985;SDS011;38002;53.296;6.600;2023-02-10T14:45:23;10.27;;;3.17;;
51985;SDS011;38002;53.296;6.600;2023-02-10T14:50:31;12.05;;;3.55;;
51985;SDS011;38002;53.296;6.600;2023-02-10T14:55:35;14.55;;;3.38;;
51985;SDS011;38002;53.296;6.600;2023-02-10T15:00:52;13.23;;;3.83;;
51985;SDS011;38002;53.296;6.600;2023-02-10T15:05:56;14.30;;;3.65;;
51985;SDS011;38002;53.296;6.600;2023-02-10T15:11:00;12.02;;;3.83;;
51985;SDS011;38002;53.296;6.600;2023-02-10T15:16:03;9.88;;;3.17;;
51985;SDS011;38002;53.296;6.600;2023-02-10T15:21:21;11.27;;;4.18;;
51985;SDS011;38002;53.296;6.600;2023-02-10T15:26:26;20.15;;;4.75;;
51985;SDS011;38002;53.296;6.600;2023-02-10T15:31:28;12.90;;;4.68;;
51985;SDS011;38002;53.296;6.600;2023-02-10T15:36:31;17.75;;;4.70;;
51985;SDS011;38002;53.296;6.600;2023-02-10T15:41:36;9.65;;;4.05;;
51985;SDS011;38002;53.296;6.600;2023-02-10T15:46:37;14.98;;;4.80;;
51985;SDS011;38002;53.296;6.600;2023-02-10T15:51:39;13.20;;;4.32;;
51985;SDS011;38002;53.296;6.600;2023-02-10T16:02:14;11.50;;;4.28;;
51985;SDS011;38002;53.296;6.600;2023-02-10T16:07:19;9.70;;;4.47;;
51985;SDS011;38002;53.296;6.600;2023-02-10T16:12:23;9.63;;;4.20;;
51985;SDS011;38002;53.296;6.600;2023-02-10T16:17:25;10.77;;;4.28;;
51985;SDS011;38002;53.296;6.600;2023-02-10T16:22:29;13.20;;;4.82;;
51985;SDS011;38002;53.296;6.600;2023-02-10T16:27:30;13.35;;;3.70;;
51985;SDS011;38002;53.296;6.600;2023-02-10T16:32:31;13.43;;;5.30;;
51985;SDS011;38002;53.296;6.600;2023-02-10T16:37:31;14.70;;;4.75;;
51985;SDS011;38002;53.296;6.600;2023-02-10T16:42:32;14.30;;;4.47;;
51985;SDS011;38002;53.296;6.600;2023-02-10T16:47:32;12.73;;;4.43;;
51985;SDS011;38002;53.296;6.600;2023-02-10T16:52:33;13.48;;;5.03;;
51985;SDS011;38002;53.296;6.600;2023-02-10T16:57:36;11.50;;;4.15;;
51985;SDS011;38002;53.296;6.600;2023-02-10T17:02:37;16.90;;;5.22;;
51985;SDS011;38002;53.296;6.600;2023-02-10T17:07:38;12.80;;;5.17;;
51985;SDS011;38002;53.296;6.600;2023-02-10T17:12:39;10.60;;;4.95;;
51985;SDS011;38002;53.296;6.600;2023-02-10T17:17:39;15.73;;;5.70;;
51985;SDS011;38002;53.296;6.600;2023-02-10T17:22:41;11.82;;;5.20;;
51985;SDS011;38002;53.296;6.600;2023-02-10T17:27:43;17.05;;;5.60;;
51985;SDS011;38002;53.296;6.600;2023-02-10T17:32:43;14.48;;;5.72;;
51985;SDS011;38002;53.296;6.600;2023-02-10T17:37:47;12.38;;;5.68;;
51985;SDS011;38002;53.296;6.600;2023-02-10T17:42:48;12.50;;;5.70;;
51985;SDS011;38002;53.296;6.600;2023-02-10T17:47:48;13.13;;;6.70;;
51985;SDS011;38002;53.296;6.600;2023-02-10T17:52:49;18.00;;;5.97;;
51985;SDS011;38002;53.296;6.600;2023-02-10T17:57:50;14.47;;;5.27;;
51985;SDS011;38002;53.296;6.600;2023-02-10T18:02:51;28.40;;;6.82;;
51985;SDS011;38002;53.296;6.600;2023-02-10T18:07:51;9.88;;;5.50;;
51985;SDS011;38002;53.296;6.600;2023-02-10T18:12:52;14.32;;;6.20;;
51985;SDS011;38002;53.296;6.600;2023-02-10T18:17:52;17.55;;;6.28;;
51985;SDS011;38002;53.296;6.600;2023-02-10T18:22:53;19.08;;;6.47;;
51985;SDS011;38002;53.296;6.600;2023-02-10T18:27:53;26.45;;;7.82;;
51985;SDS011;38002;53.296;6.600;2023-02-10T18:32:53;25.02;;;10.50;;
51985;SDS011;38002;53.296;6.600;2023-02-10T18:37:54;20.08;;;8.93;;
51985;SDS011;38002;53.296;6.600;2023-02-10T18:42:54;20.60;;;9.68;;
51985;SDS011;38002;53.296;6.600;2023-02-10T18:47:55;22.80;;;10.18;;
51985;SDS011;38002;53.296;6.600;2023-02-10T18:52:56;23.42;;;10.82;;
51985;SDS011;38002;53.296;6.600;2023-02-10T18:57:56;27.13;;;11.15;;
51985;SDS011;38002;53.296;6.600;2023-02-10T19:03:00;20.45;;;12.07;;
51985;SDS011;38002;53.296;6.600;2023-02-10T19:08:00;26.90;;;12.02;;
51985;SDS011;38002;53.296;6.600;2023-02-10T19:13:01;28.20;;;11.82;;
51985;SDS011;38002;53.296;6.600;2023-02-10T19:18:01;30.92;;;11.05;;
51985;SDS011;38002;53.296;6.600;2023-02-10T19:23:02;27.85;;;10.38;;
51985;SDS011;38002;53.296;6.600;2023-02-10T19:28:03;21.88;;;11.70;;
51985;SDS011;38002;53.296;6.600;2023-02-10T19:33:03;23.63;;;11.90;;
51985;SDS011;38002;53.296;6.600;2023-02-10T19:38:04;31.27;;;11.18;;
51985;SDS011;38002;53.296;6.600;2023-02-10T19:43:05;28.35;;;10.77;;
51985;SDS011;38002;53.296;6.600;2023-02-10T19:48:05;26.35;;;9.95;;
51985;SDS011;38002;53.296;6.600;2023-02-10T19:53:06;24.50;;;9.38;;
51985;SDS011;38002;53.296;6.600;2023-02-10T19:58:06;18.40;;;9.20;;
51985;SDS011;38002;53.296;6.600;2023-02-10T20:03:07;16.90;;;7.70;;
51985;SDS011;38002;53.296;6.600;2023-02-10T20:08:08;23.25;;;7.90;;
51985;SDS011;38002;53.296;6.600;2023-02-10T20:13:08;22.42;;;8.18;;
51985;SDS011;38002;53.296;6.600;2023-02-10T20:18:09;22.83;;;8.60;;
51985;SDS011;38002;53.296;6.600;2023-02-10T20:23:10;17.38;;;6.50;;
51985;SDS011;38002;53.296;6.600;2023-02-10T20:28:12;26.17;;;8.77;;
51985;SDS011;38002;53.296;6.600;2023-02-10T20:33:13;24.23;;;10.30;;
51985;SDS011;38002;53.296;6.600;2023-02-10T20:38:14;30.52;;;11.52;;
51985;SDS011;38002;53.296;6.600;2023-02-10T20:43:14;24.50;;;10.00;;
51985;SDS011;38002;53.296;6.600;2023-02-10T20:48:14;17.38;;;8.10;;
51985;SDS011;38002;53.296;6.600;2023-02-10T20:53:15;23.85;;;8.98;;
51985;SDS011;38002;53.296;6.600;2023-02-10T20:58:15;20.45;;;7.97;;
51985;SDS011;38002;53.296;6.600;2023-02-10T21:03:16;26.08;;;10.63;;
51985;SDS011;38002;53.296;6.600;2023-02-10T21:08:16;20.85;;;8.68;;
51985;SDS011;38002;53.296;6.600;2023-02-10T21:13:17;23.55;;;8.38;;
51985;SDS011;38002;53.296;6.600;2023-02-10T21:18:18;25.08;;;8.07;;
51985;SDS011;38002;53.296;6.600;2023-02-10T21:23:19;17.52;;;7.13;;
51985;SDS011;38002;53.296;6.600;2023-02-10T21:28:20;24.67;;;7.07;;
51985;SDS011;38002;53.296;6.600;2023-02-10T21:33:21;26.63;;;8.45;;
51985;SDS011;38002;53.296;6.600;2023-02-10T21:38:22;29.00;;;10.05;;
51985;SDS011;38002;53.296;6.600;2023-02-10T21:43:23;32.78;;;8.50;;
51985;SDS011;38002;53.296;6.600;2023-02-10T21:48:23;22.83;;;7.45;;
51985;SDS011;38002;53.296;6.600;2023-02-10T21:53:24;24.35;;;7.78;;
51985;SDS011;38002;53.296;6.600;2023-02-10T21:58:25;25.83;;;9.95;;
51985;SDS011;38002;53.296;6.600;2023-02-10T22:03:25;19.15;;;7.38;;
51985;SDS011;38002;53.296;6.600;2023-02-10T22:08:28;23.35;;;7.18;;
51985;SDS011;38002;53.296;6.600;2023-02-10T22:13:30;27.42;;;7.47;;
51985;SDS011;38002;53.296;6.600;2023-02-10T22:18:30;25.73;;;6.10;;
51985;SDS011;38002;53.296;6.600;2023-02-10T22:23:32;19.05;;;8.07;;
51985;SDS011;38002;53.296;6.600;2023-02-10T22:28:33;16.47;;;6.17;;
51985;SDS011;38002;53.296;6.600;2023-02-10T22:33:34;24.45;;;6.85;;
51985;SDS011;38002;53.296;6.600;2023-02-10T22:38:35;23.55;;;6.00;;
51985;SDS011;38002;53.296;6.600;2023-02-10T22:43:36;20.38;;;6.18;;
51985;SDS011;38002;53.296;6.600;2023-02-10T22:48:37;19.50;;;6.22;;
51985;SDS011;38002;53.296;6.600;2023-02-10T22:53:38;18.38;;;5.68;;
51985;SDS011;38002;53.296;6.600;2023-02-10T22:58:39;21.23;;;6.68;;
51985;SDS011;38002;53.296;6.600;2023-02-10T23:03:40;21.17;;;5.78;;
51985;SDS011;38002;53.296;6.600;2023-02-10T23:08:40;31.33;;;7.13;;
51985;SDS011;38002;53.296;6.600;2023-02-10T23:13:41;21.77;;;5.93;;
51985;SDS011;38002;53.296;6.600;2023-02-10T23:18:42;14.68;;;5.53;;
51985;SDS011;38002;53.296;6.600;2023-02-10T23:23:42;20.52;;;5.45;;
51985;SDS011;38002;53.296;6.600;2023-02-10T23:28:43;27.70;;;6.43;;
51985;SDS011;38002;53.296;6.600;2023-02-10T23:33:44;17.42;;;5.32;;
51985;SDS011;38002;53.296;6.600;2023-02-10T23:38:45;18.33;;;4.97;;
51985;SDS011;38002;53.296;6.600;2023-02-10T23:43:46;26.45;;;5.53;;
51985;SDS011;38002;53.296;6.600;2023-02-10T23:48:46;27.77;;;5.80;;
51985;SDS011;38002;53.296;6.600;2023-02-10T23:53:48;24.13;;;4.57;;
